createdAt,value
2023-01-11T00:01:33.766Z,100339.81
2023-01-11T00:04:01.198Z,100369.53
2023-01-11T00:06:27.891Z,100351.31
2023-01-11T00:08:56.965Z,100371.13
2023-01-11T00:11:23.870Z,100352.13
2023-01-11T00:13:50.757Z,100359.38
2023-01-11T00:16:17.728Z,100357.22
2023-01-11T00:18:44.596Z,100368.22
2023-01-11T00:21:11.439Z,100358.28
2023-01-11T00:23:38.454Z,100355.28
2023-01-11T00:26:08.242Z,100360.09
2023-01-11T00:28:35.102Z,100364.97
2023-01-11T00:31:02.246Z,100371.47
2023-01-11T00:33:29.282Z,100364.56
2023-01-11T00:35:55.957Z,100370.00
2023-01-11T00:38:23.778Z,100364.81
2023-01-11T00:40:50.648Z,100368.31
2023-01-11T00:43:19.033Z,100365.88
2023-01-11T00:45:45.714Z,100363.72
2023-01-11T00:48:12.403Z,100363.47
2023-01-11T00:50:41.084Z,100355.13
2023-01-11T00:53:09.151Z,100356.69
2023-01-11T00:55:36.351Z,100366.84
2023-01-11T00:58:03.356Z,100350.63
2023-01-11T01:00:31.568Z,100352.56
2023-01-11T01:02:58.381Z,100347.59
2023-01-11T01:05:25.304Z,100351.97
2023-01-11T01:07:52.348Z,100350.28
2023-01-11T01:10:19.909Z,100353.78
2023-01-11T01:12:47.110Z,100362.63
2023-01-11T01:15:14.208Z,100352.72
2023-01-11T01:17:42.358Z,100350.78
2023-01-11T01:20:10.665Z,100355.38
2023-01-11T01:22:37.727Z,100359.41
2023-01-11T01:25:05.113Z,100367.84
2023-01-11T01:27:31.824Z,100375.13
2023-01-11T01:29:58.505Z,100367.38
2023-01-11T01:32:25.349Z,100381.88
2023-01-11T01:34:53.455Z,100378.38
2023-01-11T01:37:20.173Z,100380.56
2023-01-11T01:39:46.887Z,100388.78
2023-01-11T01:42:14.389Z,100385.03
2023-01-11T01:44:54.374Z,100391.56
2023-01-11T01:47:25.983Z,100375.59
2023-01-11T01:49:54.751Z,100389.66
2023-01-11T01:52:21.999Z,100396.78
2023-01-11T01:54:49.637Z,100390.75
2023-01-11T01:57:23.811Z,100393.41
2023-01-11T01:59:52.444Z,100392.41
2023-01-11T02:02:21.285Z,100393.50
2023-01-11T02:04:49.100Z,100406.81
2023-01-11T02:07:20.926Z,100404.03
2023-01-11T02:09:52.826Z,100394.97
2023-01-11T02:12:20.178Z,100398.72
2023-01-11T02:14:49.217Z,100404.03
2023-01-11T02:17:16.145Z,100404.16
2023-01-11T02:19:53.726Z,100410.44
2023-01-11T02:22:53.141Z,100406.81
2023-01-11T02:25:55.333Z,100415.03
2023-01-11T02:28:29.232Z,100417.56
2023-01-11T02:31:03.370Z,100416.97
2023-01-11T02:33:39.481Z,100418.06
2023-01-11T02:36:13.099Z,100415.66
2023-01-11T02:38:46.087Z,100420.34
2023-01-11T02:41:19.697Z,100425.78
2023-01-11T02:43:53.407Z,100420.34
2023-01-11T02:46:29.647Z,100419.16
2023-01-11T02:49:04.418Z,100421.06
2023-01-11T02:51:37.431Z,100427.81
2023-01-11T02:54:07.827Z,100427.81
2023-01-11T02:56:38.981Z,100436.78
2023-01-11T02:59:09.514Z,100427.72
2023-01-11T03:01:44.432Z,100441.97
2023-01-11T03:04:22.913Z,100431.22
2023-01-11T03:06:54.876Z,100429.53
2023-01-11T03:09:30.735Z,100431.22
2023-01-11T03:12:17.566Z,100430.72
2023-01-11T03:14:56.449Z,100447.53
2023-01-11T03:17:37.087Z,100444.78
2023-01-11T03:20:09.723Z,100444.03
2023-01-11T03:22:45.902Z,100444.88
2023-01-11T03:25:22.060Z,100465.31
2023-01-11T03:27:53.547Z,100461.31
2023-01-11T03:30:29.756Z,100461.31
2023-01-11T03:33:03.877Z,100477.41
2023-01-11T03:35:38.394Z,100472.66
2023-01-11T03:38:09.916Z,100477.47
2023-01-11T03:40:40.029Z,100469.28
2023-01-11T03:43:10.352Z,100480.13
2023-01-11T03:45:44.324Z,100472.28
2023-01-11T03:48:14.224Z,100483.16
2023-01-11T03:50:41.696Z,100475.03
2023-01-11T03:53:10.362Z,100477.84
2023-01-11T03:55:40.725Z,100492.09
2023-01-11T03:58:08.356Z,100496.31
2023-01-11T04:00:36.927Z,100507.94
2023-01-11T04:03:05.006Z,100505.81
2023-01-11T04:05:32.745Z,100511.66
2023-01-11T04:07:59.434Z,100515.31
2023-01-11T04:10:26.136Z,100522.28
2023-01-11T04:12:52.699Z,100531.03
2023-01-11T04:15:19.541Z,100530.41
2023-01-11T04:17:46.175Z,100533.34
2023-01-11T04:20:14.410Z,100537.31
2023-01-11T04:22:41.149Z,100537.22
2023-01-11T04:25:08.569Z,100537.94
2023-01-11T04:27:35.267Z,100550.53
2023-01-11T04:30:02.152Z,100550.84
2023-01-11T04:32:28.791Z,100551.41
2023-01-11T04:34:55.617Z,100553.22
2023-01-11T04:37:23.714Z,100571.41
2023-01-11T04:39:50.731Z,100580.38
2023-01-11T04:42:17.431Z,100577.94
2023-01-11T04:44:44.156Z,100585.38
2023-01-11T04:47:10.783Z,100592.84
2023-01-11T04:49:37.517Z,100593.69
2023-01-11T04:52:04.777Z,100593.88
2023-01-11T04:54:32.897Z,100596.19
2023-01-11T04:56:59.567Z,100598.97
2023-01-11T04:59:26.301Z,100590.38
2023-01-11T05:01:53.017Z,100581.78
2023-01-11T05:04:19.857Z,100588.25
2023-01-11T05:06:46.717Z,100578.63
2023-01-11T05:09:14.823Z,100583.16
2023-01-11T05:11:43.309Z,100578.81
2023-01-11T05:14:10.306Z,100582.22
2023-01-11T05:16:37.597Z,100592.00
2023-01-11T05:19:05.521Z,100598.88
2023-01-11T05:21:34.282Z,100603.88
2023-01-11T05:24:02.297Z,100608.13
2023-01-11T05:26:34.432Z,100596.78
2023-01-11T05:29:05.857Z,100604.50
2023-01-11T05:31:33.836Z,100603.88
2023-01-11T05:34:00.902Z,100611.09
2023-01-11T05:36:28.663Z,100605.69
2023-01-11T05:38:56.813Z,100616.56
2023-01-11T05:41:26.585Z,100612.00
2023-01-11T05:43:54.916Z,100617.63
2023-01-11T05:46:23.573Z,100624.78
2023-01-11T05:48:50.758Z,100623.72
2023-01-11T05:51:18.073Z,100626.16
2023-01-11T05:53:44.962Z,100629.78
2023-01-11T05:56:11.878Z,100644.97
2023-01-11T05:58:38.703Z,100644.13
2023-01-11T06:01:05.896Z,100644.97
2023-01-11T06:03:34.184Z,100641.31
2023-01-11T06:06:01.188Z,100648.78
2023-01-11T06:08:27.943Z,100655.91
2023-01-11T06:10:55.855Z,100657.06
2023-01-11T06:13:23.414Z,100657.69
2023-01-11T06:15:50.431Z,100668.13
2023-01-11T06:18:17.440Z,100665.88
2023-01-11T06:20:49.056Z,100668.75
2023-01-11T06:23:15.748Z,100671.75
2023-01-11T06:25:43.512Z,100673.44
2023-01-11T06:28:12.531Z,100679.38
2023-01-11T06:30:40.159Z,100674.50
2023-01-11T06:33:07.379Z,100679.03
2023-01-11T06:35:37.531Z,100685.09
2023-01-11T06:38:05.912Z,100682.44
2023-01-11T06:40:32.624Z,100685.19
2023-01-11T06:42:59.392Z,100689.75
2023-01-11T06:45:26.092Z,100690.59
2023-01-11T06:47:52.836Z,100701.22
2023-01-11T06:50:19.826Z,100702.59
2023-01-11T06:52:53.588Z,100695.91
2023-01-11T06:55:22.196Z,100709.38
2023-01-11T06:57:48.964Z,100711.91
2023-01-11T07:00:16.792Z,100709.91
2023-01-11T07:02:44.028Z,100712.94
2023-01-11T07:05:11.361Z,100706.13
2023-01-11T07:07:38.498Z,100710.56
2023-01-11T07:10:06.813Z,100718.59
2023-01-11T07:12:35.033Z,100712.75
2023-01-11T07:15:02.133Z,100719.94
2023-01-11T07:17:29.004Z,100722.22
2023-01-11T07:19:55.705Z,100727.28
2023-01-11T07:22:22.507Z,100738.91
2023-01-11T07:24:49.609Z,100743.63
2023-01-11T07:27:16.381Z,100746.31
2023-01-11T07:29:44.762Z,100760.91
2023-01-11T07:32:11.411Z,100754.00
2023-01-11T07:34:38.172Z,100763.66
2023-01-11T07:37:05.129Z,100768.19
2023-01-11T07:39:42.867Z,100767.38
2023-01-11T07:42:11.249Z,100772.56
2023-01-11T07:44:38.069Z,100782.13
2023-01-11T07:47:06.394Z,100786.38
2023-01-11T07:49:33.123Z,100792.25
2023-01-11T07:51:59.837Z,100800.56
2023-01-11T07:54:26.555Z,100793.00
2023-01-11T07:56:53.210Z,100796.88
2023-01-11T07:59:19.927Z,100794.50
2023-01-11T08:01:46.731Z,100796.88
2023-01-11T08:04:15.072Z,100796.41
2023-01-11T08:06:41.897Z,100803.88
2023-01-11T08:09:09.697Z,100797.16
2023-01-11T08:11:36.371Z,100801.59
2023-01-11T08:14:03.200Z,100810.66
2023-01-11T08:16:29.964Z,100818.53
2023-01-11T08:18:56.656Z,100809.25
2023-01-11T08:21:24.705Z,100816.75
2023-01-11T08:23:53.233Z,100823.81
2023-01-11T08:26:20.028Z,100819.56
2023-01-11T08:28:46.909Z,100827.16
2023-01-11T08:31:13.622Z,100829.88
2023-01-11T08:33:40.711Z,100832.72
2023-01-11T08:36:09.664Z,100839.44
2023-01-11T08:38:37.943Z,100847.03
2023-01-11T08:41:06.060Z,100855.34
2023-01-11T08:43:32.943Z,100858.56
2023-01-11T08:45:59.802Z,100857.63
2023-01-11T08:48:26.537Z,100861.22
2023-01-11T08:50:53.193Z,100863.53
2023-01-11T08:53:19.888Z,100864.28
2023-01-11T08:55:49.546Z,100867.13
2023-01-11T08:58:16.391Z,100873.28
2023-01-11T09:00:43.225Z,100876.47
2023-01-11T09:03:09.917Z,100882.75
2023-01-11T09:05:37.561Z,100887.75
2023-01-11T09:08:05.060Z,100887.28
2023-01-11T09:10:32.282Z,100893.06
2023-01-11T09:13:00.667Z,100888.47
2023-01-11T09:15:28.134Z,100891.69
2023-01-11T09:17:55.165Z,100896.88
2023-01-11T09:20:22.918Z,100900.56
2023-01-11T09:22:52.819Z,100899.91
2023-01-11T09:25:20.296Z,100904.44
2023-01-11T09:27:48.132Z,100903.41
2023-01-11T09:30:18.932Z,100900.72
2023-01-11T09:32:46.039Z,100901.34
2023-01-11T09:35:12.901Z,100895.81
2023-01-11T09:37:39.602Z,100897.34
2023-01-11T09:40:13.886Z,100897.34
2023-01-11T09:42:41.212Z,100898.69
2023-01-11T09:45:14.313Z,100889.78
2023-01-11T09:47:48.721Z,100888.31
2023-01-11T09:50:20.096Z,100899.03
2023-01-11T09:52:50.792Z,100886.72
2023-01-11T09:55:20.000Z,100890.72
2023-01-11T09:57:56.963Z,100885.72
2023-01-11T10:00:32.317Z,100881.56
2023-01-11T10:03:13.508Z,100881.56
2023-01-11T10:05:59.278Z,100881.66
2023-01-11T10:18:28.738Z,100886.97
2023-01-11T10:18:40.054Z,100891.44
2023-01-11T10:20:30.458Z,100882.28
2023-01-11T10:23:02.811Z,100898.47
2023-01-11T10:25:29.789Z,100891.72
2023-01-11T10:27:59.068Z,100896.38
2023-01-11T10:30:32.928Z,100906.50
2023-01-11T10:33:05.489Z,100918.97
2023-01-11T10:35:43.684Z,100920.34
2023-01-11T10:38:20.098Z,100916.75
2023-01-11T10:40:55.933Z,100925.22
2023-01-11T10:43:22.754Z,100930.34
2023-01-11T10:45:53.308Z,100926.22
2023-01-11T10:48:23.917Z,100927.06
2023-01-11T10:51:00.418Z,100922.50
2023-01-11T10:53:32.363Z,100922.44
2023-01-11T10:56:09.264Z,100929.41
2023-01-11T10:58:57.421Z,100934.81
2023-01-11T11:01:46.254Z,100940.47
2023-01-11T11:04:37.630Z,100934.03
2023-01-11T11:07:14.528Z,100935.34
2023-01-11T11:09:50.197Z,100932.28
2023-01-11T11:12:22.810Z,100926.13
2023-01-11T11:14:54.900Z,100919.13
2023-01-11T11:17:24.983Z,100923.34
2023-01-11T11:19:52.656Z,100927.41
2023-01-11T11:22:20.771Z,100932.91
2023-01-11T11:24:50.317Z,100931.03
2023-01-11T11:27:21.344Z,100931.44
2023-01-11T11:29:51.101Z,100926.94
2023-01-11T11:32:26.730Z,100926.63
2023-01-11T11:34:54.046Z,100926.03
2023-01-11T11:37:25.274Z,100929.25
2023-01-11T11:39:53.915Z,100922.97
2023-01-11T11:42:21.871Z,100917.50
2023-01-11T11:45:17.334Z,100935.47
2023-01-11T11:48:00.583Z,100931.81
2023-01-11T11:50:43.607Z,100925.56
2023-01-11T11:53:23.360Z,100926.94
2023-01-11T11:55:51.692Z,100929.06
2023-01-11T11:58:21.886Z,100933.94
2023-01-11T12:00:51.358Z,100921.69
2023-01-11T12:03:21.337Z,100938.63
2023-01-11T12:05:54.204Z,100938.53
2023-01-11T12:08:23.983Z,100943.28
2023-01-11T12:10:54.054Z,100939.31
2023-01-11T12:13:32.762Z,100951.44
2023-01-11T12:16:01.974Z,100943.72
2023-01-11T12:18:31.483Z,100940.63
2023-01-11T12:21:09.570Z,100942.94
2023-01-11T12:23:37.922Z,100946.41
2023-01-11T12:26:20.447Z,100942.97
2023-01-11T12:29:18.174Z,100939.59
2023-01-11T12:32:12.930Z,100946.09
2023-01-11T12:34:53.859Z,100951.91
2023-01-11T12:37:29.107Z,100941.84
2023-01-11T12:40:05.276Z,100939.50
2023-01-11T12:42:51.203Z,100937.03
2023-01-11T12:45:27.110Z,100933.81
2023-01-11T12:48:11.638Z,100948.53
2023-01-11T12:50:51.968Z,100949.34
2023-01-11T12:53:35.109Z,100959.66
2023-01-11T12:56:22.512Z,100957.66
2023-01-11T12:58:51.981Z,100960.13
2023-01-11T13:01:35.775Z,100948.66
2023-01-11T13:04:29.413Z,100949.13
2023-01-11T13:07:06.708Z,100954.09
2023-01-11T13:09:45.424Z,100955.31
2023-01-11T13:12:21.780Z,100967.59
2023-01-11T13:15:27.459Z,100960.06
2023-01-11T13:18:03.747Z,100960.97
2023-01-11T13:20:59.195Z,100966.75
2023-01-11T13:23:36.126Z,100960.53
2023-01-11T13:26:14.325Z,100951.97
2023-01-11T13:28:45.436Z,100949.97
2023-01-11T13:31:14.543Z,100953.09
2023-01-11T13:33:46.254Z,100942.06
2023-01-11T13:36:23.341Z,100943.59
2023-01-11T13:38:58.099Z,100934.75
2023-01-11T13:41:28.819Z,100923.53
2023-01-11T13:44:02.256Z,100922.28
2023-01-11T13:46:53.804Z,100925.81
2023-01-11T13:49:36.972Z,100922.78
2023-01-11T13:52:12.140Z,100925.56
2023-01-11T13:54:47.854Z,100917.34
2023-01-11T13:57:22.340Z,100913.94
2023-01-11T13:59:57.570Z,100915.72
2023-01-11T14:02:32.431Z,100919.03
2023-01-11T14:05:05.515Z,100915.63
2023-01-11T14:07:41.941Z,100909.66
2023-01-11T14:10:24.321Z,100920.25
2023-01-11T14:13:07.419Z,100913.81
2023-01-11T14:15:41.433Z,100921.13
2023-01-11T14:18:32.568Z,100917.91
2023-01-11T14:21:08.601Z,100924.75
2023-01-11T14:23:46.786Z,100919.75
2023-01-11T14:26:46.565Z,100925.50
2023-01-11T14:29:31.001Z,100927.78
2023-01-11T14:32:27.864Z,100924.25
2023-01-11T14:35:39.554Z,100917.44
2023-01-11T14:38:29.656Z,100923.13
2023-01-11T14:41:18.672Z,100925.31
2023-01-11T14:44:12.756Z,100916.81
2023-01-11T14:46:51.271Z,100924.34
2023-01-11T14:49:25.824Z,100921.97
2023-01-11T14:51:59.320Z,100925.47
2023-01-11T14:54:31.371Z,100918.88
2023-01-11T14:56:58.998Z,100913.69
2023-01-11T14:59:38.147Z,100903.91
2023-01-11T15:02:23.692Z,100902.59
2023-01-11T15:05:11.333Z,100900.25
2023-01-11T15:07:41.696Z,100907.47
2023-01-11T15:10:40.341Z,100899.59
2023-01-11T15:13:13.102Z,100905.94
2023-01-11T15:15:39.850Z,100905.94
2023-01-11T15:18:17.266Z,100893.84
2023-01-11T15:20:51.596Z,100885.28
2023-01-11T15:23:18.649Z,100903.09
2023-01-11T15:25:48.787Z,100899.78
2023-01-11T15:28:43.020Z,100899.19
2023-01-11T15:31:28.869Z,100903.59
2023-01-11T15:34:00.485Z,100918.34
2023-01-11T15:37:11.401Z,100920.22
2023-01-11T15:39:45.482Z,100922.03
2023-01-11T15:42:39.739Z,100912.78
2023-01-11T15:45:53.413Z,100906.66
2023-01-11T15:48:31.721Z,100919.38
2023-01-11T15:51:18.216Z,100914.75
2023-01-11T15:54:09.103Z,100910.38
2023-01-11T15:57:24.861Z,100904.91
2023-01-11T16:00:30.851Z,100919.25
2023-01-11T16:03:30.327Z,100920.06
2023-01-11T16:06:07.756Z,100917.91
2023-01-11T16:08:40.677Z,100915.88
2023-01-11T16:11:16.892Z,100905.34
2023-01-11T16:14:03.003Z,100906.50
2023-01-11T16:16:37.423Z,100909.97
2023-01-11T16:19:07.960Z,100925.09
2023-01-11T16:21:38.539Z,100932.13
2023-01-11T16:24:07.550Z,100925.34
2023-01-11T16:26:35.925Z,100929.22
2023-01-11T16:29:08.281Z,100932.06
2023-01-11T16:31:56.423Z,100923.00
2023-01-11T16:34:23.809Z,100923.56
2023-01-11T16:36:50.618Z,100930.50
2023-01-11T16:39:22.062Z,100923.03
2023-01-11T16:41:54.919Z,100923.44
2023-01-11T16:44:28.383Z,100919.50
2023-01-11T16:47:11.384Z,100911.00
2023-01-11T16:49:38.845Z,100909.22
2023-01-11T16:52:47.320Z,100897.50
2023-01-11T16:55:24.452Z,100894.66
2023-01-11T16:57:58.612Z,100901.94
2023-01-11T17:00:29.828Z,100896.25
2023-01-11T17:03:15.714Z,100903.09
2023-01-11T17:05:42.486Z,100891.53
2023-01-11T17:08:25.494Z,100891.00
2023-01-11T17:10:55.405Z,100885.59
2023-01-11T17:13:45.797Z,100882.84
2023-01-11T17:16:14.566Z,100880.88
2023-01-11T17:18:43.805Z,100873.47
2023-01-11T17:21:18.671Z,100870.91
2023-01-11T17:23:47.106Z,100869.63
2023-01-11T17:26:17.895Z,100884.84
2023-01-11T17:28:46.730Z,100868.25
2023-01-11T17:31:20.986Z,100862.00
2023-01-11T17:33:59.129Z,100871.53
2023-01-11T17:36:26.311Z,100865.28
2023-01-11T17:38:55.599Z,100858.47
2023-01-11T17:41:22.813Z,100861.66
2023-01-11T17:43:49.716Z,100863.72
2023-01-11T17:46:20.500Z,100862.41
2023-01-11T17:48:56.665Z,100844.50
2023-01-11T17:51:25.592Z,100840.13
2023-01-11T17:53:52.603Z,100842.75
2023-01-11T17:56:35.677Z,100817.81
2023-01-11T17:59:16.112Z,100841.31
2023-01-11T18:01:47.223Z,100823.50
2023-01-11T18:04:19.442Z,100831.25
2023-01-11T18:06:47.507Z,100812.78
2023-01-11T18:09:24.642Z,100833.06
2023-01-11T18:11:52.989Z,100819.88
2023-01-11T18:14:22.781Z,100800.59
2023-01-11T18:16:58.117Z,100791.19
2023-01-11T18:19:33.236Z,100784.97
2023-01-11T18:22:00.245Z,100770.66
2023-01-11T18:24:39.815Z,100769.81
2023-01-11T18:27:34.334Z,100740.00
2023-01-11T18:30:03.149Z,100739.41
2023-01-11T18:32:36.605Z,100739.88
2023-01-11T18:35:12.756Z,100754.13
2023-01-11T18:37:39.509Z,100757.50
2023-01-11T18:40:11.921Z,100728.44
2023-01-11T18:42:39.546Z,100740.25
2023-01-11T18:45:07.393Z,100730.81
2023-01-11T18:47:34.231Z,100726.66
2023-01-11T18:50:01.073Z,100731.22
2023-01-11T18:52:29.426Z,100746.34
2023-01-11T18:54:57.231Z,100745.59
2023-01-11T18:57:24.282Z,100723.34
2023-01-11T18:59:51.441Z,100738.84
2023-01-11T19:02:22.334Z,100728.91
2023-01-11T19:04:49.640Z,100700.75
2023-01-11T19:07:16.928Z,100708.31
2023-01-11T19:09:45.014Z,100700.53
2023-01-11T19:12:12.095Z,100714.06
2023-01-11T19:14:39.073Z,100702.72
2023-01-11T19:17:05.877Z,100708.97
2023-01-11T19:19:33.199Z,100703.66
2023-01-11T19:21:59.963Z,100694.97
2023-01-11T19:24:26.911Z,100690.72
2023-01-11T19:26:55.152Z,100690.72
2023-01-11T19:29:21.996Z,100693.72
2023-01-11T19:31:48.795Z,100700.75
2023-01-11T19:34:15.995Z,100702.63
2023-01-11T19:36:43.070Z,100706.19
2023-01-11T19:39:10.096Z,100702.34
2023-01-11T19:41:37.483Z,100688.56
2023-01-11T19:44:05.882Z,100674.56
2023-01-11T19:46:32.701Z,100676.66
2023-01-11T19:48:59.787Z,100683.84
2023-01-11T19:51:26.469Z,100673.53
2023-01-11T19:53:54.007Z,100670.19
2023-01-11T19:56:20.720Z,100680.19
2023-01-11T19:58:47.446Z,100686.03
2023-01-11T20:01:15.638Z,100691.13
2023-01-11T20:03:42.465Z,100687.31
2023-01-11T20:06:09.559Z,100694.53
2023-01-11T20:08:37.580Z,100717.25
2023-01-11T20:11:06.305Z,100699.66
2023-01-11T20:13:33.909Z,100700.59
2023-01-11T20:16:04.878Z,100697.72
2023-01-11T20:18:33.122Z,100693.06
2023-01-11T20:21:00.349Z,100691.47
2023-01-11T20:23:29.489Z,100688.63
2023-01-11T20:25:59.708Z,100697.53
2023-01-11T20:28:27.860Z,100704.75
2023-01-11T20:30:55.123Z,100720.75
2023-01-11T20:33:22.345Z,100718.00
2023-01-11T20:35:50.835Z,100722.75
2023-01-11T20:38:17.935Z,100724.47
2023-01-11T20:40:44.922Z,100721.06
2023-01-11T20:43:11.750Z,100715.75
2023-01-11T20:45:38.943Z,100707.25
2023-01-11T20:48:07.267Z,100706.50
2023-01-11T20:50:35.258Z,100703.09
2023-01-11T20:53:03.747Z,100695.06
2023-01-11T20:55:30.771Z,100706.66
2023-01-11T20:57:57.496Z,100702.78
2023-01-11T21:00:24.358Z,100705.59
2023-01-11T21:02:51.436Z,100702.19
2023-01-11T21:05:18.181Z,100695.59
2023-01-11T21:07:44.941Z,100705.25
2023-01-11T21:10:13.551Z,100716.81
2023-01-11T21:12:40.366Z,100716.69
2023-01-11T21:15:08.097Z,100708.66
2023-01-11T21:17:34.980Z,100708.53
2023-01-11T21:20:02.172Z,100704.94
2023-01-11T21:22:28.998Z,100714.28
2023-01-11T21:24:55.849Z,100716.50
2023-01-11T21:27:24.076Z,100718.09
2023-01-11T21:29:50.963Z,100712.25
2023-01-11T21:32:17.709Z,100712.97
2023-01-11T21:34:44.851Z,100712.78
2023-01-11T21:37:11.813Z,100703.41
2023-01-11T21:39:38.549Z,100711.44
2023-01-11T21:42:05.581Z,100708.03
2023-01-11T21:44:34.355Z,100710.22
2023-01-11T21:47:02.753Z,100702.88
2023-01-11T21:49:29.825Z,100700.69
2023-01-11T21:51:56.958Z,100691.13
2023-01-11T21:54:23.990Z,100696.53
2023-01-11T21:56:51.219Z,100700.38
2023-01-11T21:59:18.345Z,100691.69
2023-01-11T22:01:46.983Z,100697.66
2023-01-11T22:04:16.259Z,100700.88
2023-01-11T22:06:44.858Z,100689.53
2023-01-11T22:09:11.806Z,100697.03
2023-01-11T22:11:39.214Z,100694.38
2023-01-11T22:14:06.225Z,100697.91
2023-01-11T22:16:33.964Z,100700.44
2023-01-11T22:19:07.407Z,100710.09
2023-01-11T22:21:35.111Z,100706.09
2023-01-11T22:24:01.946Z,100704.75
2023-01-11T22:26:29.080Z,100693.16
2023-01-11T22:28:57.002Z,100700.91
2023-01-11T22:31:25.149Z,100702.84
2023-01-11T22:33:51.899Z,100713.25
2023-01-11T22:36:21.169Z,100700.75
2023-01-11T22:38:47.934Z,100714.84
2023-01-11T22:41:15.107Z,100705.50
2023-01-11T22:43:41.949Z,100717.69
2023-01-11T22:46:13.479Z,100716.50
2023-01-11T22:48:40.488Z,100724.22
2023-01-11T22:51:07.803Z,100733.25
2023-01-11T22:53:37.334Z,100732.59
2023-01-11T22:56:05.241Z,100730.25
2023-01-11T22:58:32.134Z,100726.56
2023-01-11T23:00:58.823Z,100725.41
2023-01-11T23:03:25.541Z,100731.94
2023-01-11T23:05:52.478Z,100730.91
2023-01-11T23:08:19.247Z,100731.56
2023-01-11T23:10:47.453Z,100718.69
2023-01-11T23:13:14.339Z,100718.69
2023-01-11T23:15:41.084Z,100722.09
2023-01-11T23:18:07.882Z,100712.25
2023-01-11T23:20:34.636Z,100696.59
2023-01-11T23:23:01.294Z,100708.78
2023-01-11T23:25:28.021Z,100701.03
2023-01-11T23:27:56.453Z,100688.63
2023-01-11T23:30:23.277Z,100702.75
2023-01-11T23:32:50.348Z,100702.53
2023-01-11T23:35:17.129Z,100709.66
2023-01-11T23:37:43.863Z,100703.47
2023-01-11T23:40:11.583Z,100693.19
2023-01-11T23:42:38.358Z,100698.28
2023-01-11T23:45:08.567Z,100701.59
2023-01-11T23:47:35.483Z,100693.66
2023-01-11T23:50:03.958Z,100692.78
2023-01-11T23:52:32.586Z,100695.91
2023-01-11T23:54:59.649Z,100692.09
2023-01-11T23:57:26.933Z,100706.19
2023-01-11T23:59:53.690Z,100703.44
